Pagrindinis puslapis
METAR-TAF:

METAR-TAF

Oro uostai :

Seulas Inčonas, Pietų Korėja

platuma: 37-28N, ilguma: 126-27E, Aukštis: 7 m

Dabartinis oras

Ataskaita buvo paskelbta 16 minutes, ne 11:00 UTC
Vėjas 9 kt iš Šiaurės/Šiaurės Rytų
Temperatūra 7°C
Drėgmė 57%
Slėgis 1018 hPa
Matomumas 10 km arba daugiau
nėra debesų žemiau 1500 m ir nėra kamuolinių lietaus debesų

METAR: RKSI 281100Z 03009KT CAVOK 07/M01 Q1018 NOSIG

Laikas: 20:16 (11:16 UTC)

Prognozė

Ataskaita buvo paskelbta 6 valandos ir 16 minutes, ne 05:00 UTC
Prognozė galioja nuo 28 metu 06 UTC su 29 metu 12 UTC
Vėjas 10 kt iš Šiaurės/Šiaurės Rytų
Matomumas 10 km arba daugiau
nėra debesų žemiau 1500 m ir nėra kamuolinių lietaus debesų
Tapsmas
nuo 29 metu 03 UTC su 29 metu 04 UTC
Vėjas 7 kt iš Šiaurės/Šiaurės Vakarų

TAF: RKSI 280500Z 2806/2912 03010KT CAVOK TN02/2822Z TX07/2906Z BECMG 2903/2904 33007KT

Orai ataskaitas ir orų prognozės (METAR, TAF).

turimą stotys yra geltonos ir raudonos taškus žemėlapyje.

Perkelti pele per norėdami pamatyti stoties vardą.

Tada spustelėkite, norėdami matyti oro stebėjimo ir prognozės.

Norėdami pakeisti žemėlapį: spustelėkite ant žalios mygtukų su juodo kryžiaus žemyn,; žalią mygtuką su brūkšneliu, jei norite nutolinti; arba žalių rodyklių gretimoms žemėlapius.


METAR-TAF: